Ryde, California
Current Conditions -  °F | °C
As of 11:53 PM on Saturday 25 Oct 2014 (Local Time) from KSAC Reporting Station
Scattered Clouds Scattered Clouds  
Wind Chill: 60°   Ceiling: Unl
Heat Index: 60°   Visibility: 10mi
Dew Point: 54°   Wind: 6mph
Humidity: 80%   Direction: 230°SW
Pressure: 30.12"   Gusts: NA
Location:  38.24°N, 121.56°W
Report Text: KSAC 260653Z 23005KT 10SM SCT110 16/12 A3012 RMK AO2 SLP200 T01560122
Loading
Personal Weather Stations






























Interactive Weather Map
Tropical Storm Tracking
New forecast layout! Learn more

10-Day Weather Forecast

Advertisements
Track Severe Weather on mobile